หน้าหลัก
METAR-TAF:

METAR-TAF

ท่าอากาศยาน :

Preston, อังกฤษ

ละติจูด: 53-44-42N, ลองจิจูด: 2-53-02W, ความสูง: 17 ม.

การสังเกตสภาพอากาศปัจจุบัน

รายงานได้ทำขึ้นเมื่อ 6 ชั่วโมงและ 32 นาทีที่แล้ว ณ เวลา 17:50 UTC
ลม 9 นอตจากตะวันตก/ตะวันตกเฉียงเหนือ, แปรผันระหว่างตะวันตก และตะวันตกเฉียงเหนือ
อุณหภูมิ 15°C
ความชื้น 63%
ความกดอากาศ 1017 hPa
ทัศนวิสัย 10 กม. หรือมากกว่า
มีเมฆกระจายเป็นบางส่วนที่ความสูง 3500 ฟุต

METAR: EGNO 181750Z 29009KT 260V320 9999 SCT035 15/08 Q1017

เวลา: 01:22 (00:22 UTC)

การพยากรณ์

รายงานได้ทำขึ้นเมื่อ 10 ชั่วโมงและ 28 นาทีที่แล้ว ณ เวลา 13:54 UTC
การพยากรณ์มีผลตั้งแต่วันที่ 18 ณ เวลา 15 UTC จนถึงวันที่ 18 ณ เวลา 19 UTC
ลม 8 นอตจากตะวันตก/ตะวันตกเฉียงเหนือ
ทัศนวิสัย 10 กม. หรือมากกว่า
มีเมฆกระจายเป็นบางส่วนที่ความสูง 2000 ฟุต
ความน่าจะเป็น 30% :
ชั่วคราว
ตั้งแต่วันที่ 18 ณ เวลา 17 UTC จนถึงวันที่ 18 ณ เวลา 19 UTC
ทัศนวิสัย: 3000 ม.
มีเมฆเป็นส่วนมากเว้นเป็นระยะที่ความสูง 1400 ฟุต
มีเมฆเป็นส่วนมากเว้นเป็นระยะที่ความสูง 3000 ฟุต, คิวมูโลนิมบัส.
ฝนโปรยปรายหนัก,

TAF: EGNO 181354Z 1815/1819 30008KT 9999 SCT020 PROB30 TEMPO 1817/1819 3000 +SHRA BKN014 BKN030CB

สังเกตการณ์สภาพอากาศและพยากรณ์อากาศของสนามบินมากกว่า 4000 แห่ง (รายงาน METAR และ TAF).

สถานีที่ดูได้จะแสดงไว้ด้วยจุดสีเหลืองและสีแดงบนแผนที่.

เลื่อนเมาส์ไปเหนือจุดเพื่อดูชื่อสถานี.

แล้วคลิกเพื่อดูสังเกตการณ์และการพยากรณ์สภาพอากาศ.

ในการเปลี่ยนแผนที่: คลิกที่ปุ่มสีเขียวที่มีกากบาทสีดำเพื่อซูมเข้า; ที่ปุ่มสีเขียวที่มีขีดเพื่อซูมออก; หรือที่ลูกศรสีเขียวเพื่อไปยังแผนที่ที่อยู่ติดกัน.


METAR-TAF: